sensor_id;sensor_type;location;lat;lon;timestamp;temperature;humidity
34766;DHT22;20984;43.508;1.504;2023-08-17T00:01:40;22.30;99.90
34766;DHT22;20984;43.508;1.504;2023-08-17T00:04:06;22.30;99.90
34766;DHT22;20984;43.508;1.504;2023-08-17T00:06:31;22.30;99.90
34766;DHT22;20984;43.508;1.504;2023-08-17T00:08:57;22.30;99.90
34766;DHT22;20984;43.508;1.504;2023-08-17T00:11:23;22.30;99.90
34766;DHT22;20984;43.508;1.504;2023-08-17T00:13:48;22.30;99.90
34766;DHT22;20984;43.508;1.504;2023-08-17T00:16:14;22.30;99.90
34766;DHT22;20984;43.508;1.504;2023-08-17T00:18:40;22.30;99.90
34766;DHT22;20984;43.508;1.504;2023-08-17T00:21:06;22.30;99.90
34766;DHT22;20984;43.508;1.504;2023-08-17T00:23:31;22.30;99.90
34766;DHT22;20984;43.508;1.504;2023-08-17T00:25:57;22.30;99.90
34766;DHT22;20984;43.508;1.504;2023-08-17T00:28:22;22.40;99.90
34766;DHT22;20984;43.508;1.504;2023-08-17T00:30:48;22.30;99.90
34766;DHT22;20984;43.508;1.504;2023-08-17T00:33:14;22.30;99.90
34766;DHT22;20984;43.508;1.504;2023-08-17T00:35:39;22.30;99.90
34766;DHT22;20984;43.508;1.504;2023-08-17T00:38:05;22.40;99.90
34766;DHT22;20984;43.508;1.504;2023-08-17T00:40:31;22.40;99.90
34766;DHT22;20984;43.508;1.504;2023-08-17T00:42:56;22.30;99.90
34766;DHT22;20984;43.508;1.504;2023-08-17T00:45:23;22.30;99.90
34766;DHT22;20984;43.508;1.504;2023-08-17T00:47:49;22.40;99.90
34766;DHT22;20984;43.508;1.504;2023-08-17T00:50:15;22.30;99.90
34766;DHT22;20984;43.508;1.504;2023-08-17T00:52:42;22.30;99.90
34766;DHT22;20984;43.508;1.504;2023-08-17T00:55:09;22.30;99.90
34766;DHT22;20984;43.508;1.504;2023-08-17T00:57:36;22.30;99.90
34766;DHT22;20984;43.508;1.504;2023-08-17T01:00:03;22.20;99.90
34766;DHT22;20984;43.508;1.504;2023-08-17T01:02:30;22.20;99.90
34766;DHT22;20984;43.508;1.504;2023-08-17T01:04:56;22.10;99.90
34766;DHT22;20984;43.508;1.504;2023-08-17T01:07:22;22.10;99.90
34766;DHT22;20984;43.508;1.504;2023-08-17T01:09:47;22.10;99.90
34766;DHT22;20984;43.508;1.504;2023-08-17T01:12:25;22.00;99.90
34766;DHT22;20984;43.508;1.504;2023-08-17T01:17:37;22.00;99.90
34766;DHT22;20984;43.508;1.504;2023-08-17T01:20:05;22.00;99.90
34766;DHT22;20984;43.508;1.504;2023-08-17T01:22:35;22.00;99.90
34766;DHT22;20984;43.508;1.504;2023-08-17T01:25:02;22.00;99.90
34766;DHT22;20984;43.508;1.504;2023-08-17T01:27:40;22.00;99.90
34766;DHT22;20984;43.508;1.504;2023-08-17T01:30:07;22.00;99.90
34766;DHT22;20984;43.508;1.504;2023-08-17T01:32:48;22.00;99.90
34766;DHT22;20984;43.508;1.504;2023-08-17T01:35:34;21.90;99.90
34766;DHT22;20984;43.508;1.504;2023-08-17T01:38:07;21.90;99.90
34766;DHT22;20984;43.508;1.504;2023-08-17T01:40:33;21.90;99.90
34766;DHT22;20984;43.508;1.504;2023-08-17T01:43:01;21.90;99.90
34766;DHT22;20984;43.508;1.504;2023-08-17T01:45:27;21.90;99.90
34766;DHT22;20984;43.508;1.504;2023-08-17T01:47:52;21.90;99.90
34766;DHT22;20984;43.508;1.504;2023-08-17T01:50:18;21.80;99.90
34766;DHT22;20984;43.508;1.504;2023-08-17T01:52:44;21.80;99.90
34766;DHT22;20984;43.508;1.504;2023-08-17T01:55:09;21.70;99.90
34766;DHT22;20984;43.508;1.504;2023-08-17T01:57:35;21.70;99.90
34766;DHT22;20984;43.508;1.504;2023-08-17T02:00:04;21.70;99.90
34766;DHT22;20984;43.508;1.504;2023-08-17T02:02:31;21.70;99.90
34766;DHT22;20984;43.508;1.504;2023-08-17T02:04:57;21.60;99.90
34766;DHT22;20984;43.508;1.504;2023-08-17T02:07:22;21.60;99.90
34766;DHT22;20984;43.508;1.504;2023-08-17T02:09:48;21.50;99.90
34766;DHT22;20984;43.508;1.504;2023-08-17T02:12:14;21.40;99.90
34766;DHT22;20984;43.508;1.504;2023-08-17T02:14:39;21.30;99.90
34766;DHT22;20984;43.508;1.504;2023-08-17T02:17:05;21.30;99.90
34766;DHT22;20984;43.508;1.504;2023-08-17T02:19:31;21.20;99.90
34766;DHT22;20984;43.508;1.504;2023-08-17T02:21:58;21.10;99.90
34766;DHT22;20984;43.508;1.504;2023-08-17T02:24:24;21.10;99.90
34766;DHT22;20984;43.508;1.504;2023-08-17T02:26:50;21.10;99.90
34766;DHT22;20984;43.508;1.504;2023-08-17T02:29:16;21.10;99.90
34766;DHT22;20984;43.508;1.504;2023-08-17T02:31:41;21.10;99.90
34766;DHT22;20984;43.508;1.504;2023-08-17T02:34:07;21.10;99.90
34766;DHT22;20984;43.508;1.504;2023-08-17T02:36:33;21.00;99.90
34766;DHT22;20984;43.508;1.504;2023-08-17T02:38:59;21.00;99.90
34766;DHT22;20984;43.508;1.504;2023-08-17T02:41:24;21.00;99.90
34766;DHT22;20984;43.508;1.504;2023-08-17T02:43:50;21.00;99.90
34766;DHT22;20984;43.508;1.504;2023-08-17T02:46:16;21.00;99.90
34766;DHT22;20984;43.508;1.504;2023-08-17T02:48:41;21.00;99.90
34766;DHT22;20984;43.508;1.504;2023-08-17T02:51:07;21.10;99.90
34766;DHT22;20984;43.508;1.504;2023-08-17T02:53:33;21.10;99.90
34766;DHT22;20984;43.508;1.504;2023-08-17T02:55:58;21.10;99.90
34766;DHT22;20984;43.508;1.504;2023-08-17T02:58:24;21.10;99.90
34766;DHT22;20984;43.508;1.504;2023-08-17T03:00:52;21.10;99.90
34766;DHT22;20984;43.508;1.504;2023-08-17T03:03:19;21.20;99.90
34766;DHT22;20984;43.508;1.504;2023-08-17T03:05:44;21.10;99.90
34766;DHT22;20984;43.508;1.504;2023-08-17T03:08:10;21.20;99.90
34766;DHT22;20984;43.508;1.504;2023-08-17T03:10:37;21.20;99.90
34766;DHT22;20984;43.508;1.504;2023-08-17T03:13:03;21.20;99.90
34766;DHT22;20984;43.508;1.504;2023-08-17T03:15:29;21.20;99.90
34766;DHT22;20984;43.508;1.504;2023-08-17T03:17:54;21.30;99.90
34766;DHT22;20984;43.508;1.504;2023-08-17T03:20:20;21.30;99.90
34766;DHT22;20984;43.508;1.504;2023-08-17T03:22:46;21.30;99.90
34766;DHT22;20984;43.508;1.504;2023-08-17T03:25:11;21.40;99.90
34766;DHT22;20984;43.508;1.504;2023-08-17T03:27:37;21.40;99.90
34766;DHT22;20984;43.508;1.504;2023-08-17T03:30:04;21.30;99.90
34766;DHT22;20984;43.508;1.504;2023-08-17T03:32:30;21.30;99.90
34766;DHT22;20984;43.508;1.504;2023-08-17T03:34:55;21.20;99.90
34766;DHT22;20984;43.508;1.504;2023-08-17T03:37:21;21.20;99.90
34766;DHT22;20984;43.508;1.504;2023-08-17T03:39:47;21.20;99.90
34766;DHT22;20984;43.508;1.504;2023-08-17T03:42:12;21.20;99.90
34766;DHT22;20984;43.508;1.504;2023-08-17T03:44:38;21.10;99.90
34766;DHT22;20984;43.508;1.504;2023-08-17T03:47:04;21.10;99.90
34766;DHT22;20984;43.508;1.504;2023-08-17T03:49:29;21.10;99.90
34766;DHT22;20984;43.508;1.504;2023-08-17T03:51:55;21.10;99.90
34766;DHT22;20984;43.508;1.504;2023-08-17T03:54:21;21.10;99.90
34766;DHT22;20984;43.508;1.504;2023-08-17T03:56:46;21.00;99.90
34766;DHT22;20984;43.508;1.504;2023-08-17T03:59:12;21.10;99.90
34766;DHT22;20984;43.508;1.504;2023-08-17T04:01:37;21.00;99.90
34766;DHT22;20984;43.508;1.504;2023-08-17T04:04:03;21.00;99.90
34766;DHT22;20984;43.508;1.504;2023-08-17T04:06:29;21.10;99.90
34766;DHT22;20984;43.508;1.504;2023-08-17T04:08:56;21.10;99.90
34766;DHT22;20984;43.508;1.504;2023-08-17T04:11:21;21.10;99.90
34766;DHT22;20984;43.508;1.504;2023-08-17T04:13:47;21.10;99.90
34766;DHT22;20984;43.508;1.504;2023-08-17T04:16:13;21.10;99.90
34766;DHT22;20984;43.508;1.504;2023-08-17T04:18:38;21.20;99.90
34766;DHT22;20984;43.508;1.504;2023-08-17T04:21:04;21.20;99.90
34766;DHT22;20984;43.508;1.504;2023-08-17T04:23:29;21.20;99.90
34766;DHT22;20984;43.508;1.504;2023-08-17T04:25:55;21.20;99.90
34766;DHT22;20984;43.508;1.504;2023-08-17T04:28:21;21.20;99.90
34766;DHT22;20984;43.508;1.504;2023-08-17T04:30:46;21.20;99.90
34766;DHT22;20984;43.508;1.504;2023-08-17T04:33:12;21.20;99.90
34766;DHT22;20984;43.508;1.504;2023-08-17T04:35:38;21.30;99.90
34766;DHT22;20984;43.508;1.504;2023-08-17T04:38:04;21.30;99.90
34766;DHT22;20984;43.508;1.504;2023-08-17T04:40:30;21.30;99.90
34766;DHT22;20984;43.508;1.504;2023-08-17T04:42:56;21.40;99.90
34766;DHT22;20984;43.508;1.504;2023-08-17T04:45:22;21.40;99.90
34766;DHT22;20984;43.508;1.504;2023-08-17T04:47:48;21.40;99.90
34766;DHT22;20984;43.508;1.504;2023-08-17T04:50:15;21.40;99.90
34766;DHT22;20984;43.508;1.504;2023-08-17T04:52:45;21.40;99.90
34766;DHT22;20984;43.508;1.504;2023-08-17T04:55:12;21.40;99.90
34766;DHT22;20984;43.508;1.504;2023-08-17T04:57:38;21.50;99.90
34766;DHT22;20984;43.508;1.504;2023-08-17T05:00:04;21.50;99.90
34766;DHT22;20984;43.508;1.504;2023-08-17T05:02:34;21.50;99.90
34766;DHT22;20984;43.508;1.504;2023-08-17T05:04:59;21.50;99.90
34766;DHT22;20984;43.508;1.504;2023-08-17T05:07:25;21.60;99.90
34766;DHT22;20984;43.508;1.504;2023-08-17T05:09:50;21.60;99.90
34766;DHT22;20984;43.508;1.504;2023-08-17T05:12:16;21.60;99.90
34766;DHT22;20984;43.508;1.504;2023-08-17T05:14:42;21.60;99.90
34766;DHT22;20984;43.508;1.504;2023-08-17T05:17:07;21.50;99.90
34766;DHT22;20984;43.508;1.504;2023-08-17T05:19:33;21.50;99.90
34766;DHT22;20984;43.508;1.504;2023-08-17T05:21:59;21.60;99.90
34766;DHT22;20984;43.508;1.504;2023-08-17T05:24:24;21.60;99.90
34766;DHT22;20984;43.508;1.504;2023-08-17T05:26:50;21.60;99.90
34766;DHT22;20984;43.508;1.504;2023-08-17T05:29:16;21.70;99.90
34766;DHT22;20984;43.508;1.504;2023-08-17T05:31:41;21.70;99.90
34766;DHT22;20984;43.508;1.504;2023-08-17T05:34:07;21.70;99.90
34766;DHT22;20984;43.508;1.504;2023-08-17T05:36:33;21.80;99.90
34766;DHT22;20984;43.508;1.504;2023-08-17T05:38:58;21.70;99.90
34766;DHT22;20984;43.508;1.504;2023-08-17T05:41:24;21.80;99.90
34766;DHT22;20984;43.508;1.504;2023-08-17T05:43:50;21.80;99.90
34766;DHT22;20984;43.508;1.504;2023-08-17T05:46:16;21.80;99.90
34766;DHT22;20984;43.508;1.504;2023-08-17T05:48:42;21.80;99.90
34766;DHT22;20984;43.508;1.504;2023-08-17T05:51:07;21.90;99.90
34766;DHT22;20984;43.508;1.504;2023-08-17T05:53:33;21.80;99.90
34766;DHT22;20984;43.508;1.504;2023-08-17T05:55:58;21.90;99.90
34766;DHT22;20984;43.508;1.504;2023-08-17T05:58:24;21.90;99.90
34766;DHT22;20984;43.508;1.504;2023-08-17T06:00:50;21.90;99.90
34766;DHT22;20984;43.508;1.504;2023-08-17T06:03:15;21.90;99.90
34766;DHT22;20984;43.508;1.504;2023-08-17T06:05:41;22.00;99.90
34766;DHT22;20984;43.508;1.504;2023-08-17T06:08:07;22.00;99.90
34766;DHT22;20984;43.508;1.504;2023-08-17T06:10:32;22.00;99.90
34766;DHT22;20984;43.508;1.504;2023-08-17T06:12:58;22.00;99.90
34766;DHT22;20984;43.508;1.504;2023-08-17T06:15:24;21.90;99.90
34766;DHT22;20984;43.508;1.504;2023-08-17T06:17:50;22.00;99.90
34766;DHT22;20984;43.508;1.504;2023-08-17T06:20:17;22.00;99.90
34766;DHT22;20984;43.508;1.504;2023-08-17T06:22:43;22.00;99.90
34766;DHT22;20984;43.508;1.504;2023-08-17T06:25:09;22.10;99.90
34766;DHT22;20984;43.508;1.504;2023-08-17T06:27:35;22.00;99.90
34766;DHT22;20984;43.508;1.504;2023-08-17T06:30:02;22.10;99.90
34766;DHT22;20984;43.508;1.504;2023-08-17T06:32:29;22.20;99.90
34766;DHT22;20984;43.508;1.504;2023-08-17T06:34:55;22.30;99.90
34766;DHT22;20984;43.508;1.504;2023-08-17T06:37:20;22.30;99.90
34766;DHT22;20984;43.508;1.504;2023-08-17T06:39:46;22.30;99.90
34766;DHT22;20984;43.508;1.504;2023-08-17T06:42:12;22.30;99.90
34766;DHT22;20984;43.508;1.504;2023-08-17T06:44:37;22.30;99.90
34766;DHT22;20984;43.508;1.504;2023-08-17T06:47:03;22.40;99.90
34766;DHT22;20984;43.508;1.504;2023-08-17T06:49:30;22.40;99.90
34766;DHT22;20984;43.508;1.504;2023-08-17T06:51:55;22.40;99.90
34766;DHT22;20984;43.508;1.504;2023-08-17T06:54:21;22.50;99.90
34766;DHT22;20984;43.508;1.504;2023-08-17T06:56:47;22.50;99.90
34766;DHT22;20984;43.508;1.504;2023-08-17T06:59:12;22.60;99.90
34766;DHT22;20984;43.508;1.504;2023-08-17T07:01:38;22.70;99.90
34766;DHT22;20984;43.508;1.504;2023-08-17T07:04:04;22.70;99.90
34766;DHT22;20984;43.508;1.504;2023-08-17T07:06:29;22.70;99.90
34766;DHT22;20984;43.508;1.504;2023-08-17T07:08:55;22.80;99.90
34766;DHT22;20984;43.508;1.504;2023-08-17T07:11:22;22.80;99.90
34766;DHT22;20984;43.508;1.504;2023-08-17T07:13:47;22.70;99.90
34766;DHT22;20984;43.508;1.504;2023-08-17T07:16:13;22.80;99.90
34766;DHT22;20984;43.508;1.504;2023-08-17T07:18:39;22.90;99.90
34766;DHT22;20984;43.508;1.504;2023-08-17T07:21:05;23.00;99.90
34766;DHT22;20984;43.508;1.504;2023-08-17T07:23:31;23.10;99.90
34766;DHT22;20984;43.508;1.504;2023-08-17T07:25:57;23.20;99.90
34766;DHT22;20984;43.508;1.504;2023-08-17T07:28:22;23.20;99.90
34766;DHT22;20984;43.508;1.504;2023-08-17T07:30:48;23.30;99.90
34766;DHT22;20984;43.508;1.504;2023-08-17T07:33:14;23.50;99.90
34766;DHT22;20984;43.508;1.504;2023-08-17T07:35:39;23.70;99.90
34766;DHT22;20984;43.508;1.504;2023-08-17T07:38:05;23.90;99.90
34766;DHT22;20984;43.508;1.504;2023-08-17T07:40:31;24.00;99.90
34766;DHT22;20984;43.508;1.504;2023-08-17T07:42:57;24.20;99.90
34766;DHT22;20984;43.508;1.504;2023-08-17T07:45:22;24.20;99.90
34766;DHT22;20984;43.508;1.504;2023-08-17T07:47:48;24.20;99.90
34766;DHT22;20984;43.508;1.504;2023-08-17T07:50:14;24.30;99.90
34766;DHT22;20984;43.508;1.504;2023-08-17T07:52:39;24.40;99.90
34766;DHT22;20984;43.508;1.504;2023-08-17T07:55:05;24.40;99.90
34766;DHT22;20984;43.508;1.504;2023-08-17T07:57:31;24.50;99.90
34766;DHT22;20984;43.508;1.504;2023-08-17T07:59:56;24.40;99.90
34766;DHT22;20984;43.508;1.504;2023-08-17T08:02:22;24.30;99.90
34766;DHT22;20984;43.508;1.504;2023-08-17T08:04:47;24.40;99.90
34766;DHT22;20984;43.508;1.504;2023-08-17T08:07:13;24.60;99.90
34766;DHT22;20984;43.508;1.504;2023-08-17T08:09:39;24.70;99.90
34766;DHT22;20984;43.508;1.504;2023-08-17T08:12:05;24.80;99.90
34766;DHT22;20984;43.508;1.504;2023-08-17T08:14:33;24.80;99.90
34766;DHT22;20984;43.508;1.504;2023-08-17T08:16:59;24.80;99.90
34766;DHT22;20984;43.508;1.504;2023-08-17T08:19:24;24.80;99.90
34766;DHT22;20984;43.508;1.504;2023-08-17T08:21:50;25.00;99.90
34766;DHT22;20984;43.508;1.504;2023-08-17T08:24:16;25.00;99.90
34766;DHT22;20984;43.508;1.504;2023-08-17T08:26:42;25.10;99.90
34766;DHT22;20984;43.508;1.504;2023-08-17T08:29:07;25.10;99.90
34766;DHT22;20984;43.508;1.504;2023-08-17T08:31:33;25.20;99.90
34766;DHT22;20984;43.508;1.504;2023-08-17T08:33:58;25.30;99.90
34766;DHT22;20984;43.508;1.504;2023-08-17T08:36:25;25.30;99.90
34766;DHT22;20984;43.508;1.504;2023-08-17T08:38:50;25.50;99.90
34766;DHT22;20984;43.508;1.504;2023-08-17T08:41:17;25.60;99.90
34766;DHT22;20984;43.508;1.504;2023-08-17T08:43:43;25.70;99.90
34766;DHT22;20984;43.508;1.504;2023-08-17T08:46:09;25.70;99.90
34766;DHT22;20984;43.508;1.504;2023-08-17T08:48:35;25.80;99.90
34766;DHT22;20984;43.508;1.504;2023-08-17T08:51:04;25.90;99.90
34766;DHT22;20984;43.508;1.504;2023-08-17T08:53:44;25.90;99.90
34766;DHT22;20984;43.508;1.504;2023-08-17T08:56:13;26.20;99.90
34766;DHT22;20984;43.508;1.504;2023-08-17T08:58:42;26.30;99.90
34766;DHT22;20984;43.508;1.504;2023-08-17T09:01:10;26.40;99.90
34766;DHT22;20984;43.508;1.504;2023-08-17T09:03:36;26.40;99.90
34766;DHT22;20984;43.508;1.504;2023-08-17T09:06:03;26.50;99.90
34766;DHT22;20984;43.508;1.504;2023-08-17T09:08:30;26.60;99.90
34766;DHT22;20984;43.508;1.504;2023-08-17T09:10:56;26.60;99.90
34766;DHT22;20984;43.508;1.504;2023-08-17T09:13:22;26.70;99.90
34766;DHT22;20984;43.508;1.504;2023-08-17T09:15:48;26.70;99.90
34766;DHT22;20984;43.508;1.504;2023-08-17T09:18:16;26.80;99.90
34766;DHT22;20984;43.508;1.504;2023-08-17T09:20:43;26.90;99.90
34766;DHT22;20984;43.508;1.504;2023-08-17T09:23:17;26.90;99.90
34766;DHT22;20984;43.508;1.504;2023-08-17T09:25:46;27.00;99.90
34766;DHT22;20984;43.508;1.504;2023-08-17T09:28:13;27.20;99.90
34766;DHT22;20984;43.508;1.504;2023-08-17T09:31:09;27.30;99.90
34766;DHT22;20984;43.508;1.504;2023-08-17T09:33:35;27.30;99.90
34766;DHT22;20984;43.508;1.504;2023-08-17T09:36:01;27.40;99.90
34766;DHT22;20984;43.508;1.504;2023-08-17T09:38:27;27.50;99.90
34766;DHT22;20984;43.508;1.504;2023-08-17T09:40:53;27.50;99.90
34766;DHT22;20984;43.508;1.504;2023-08-17T09:43:19;27.50;99.90
34766;DHT22;20984;43.508;1.504;2023-08-17T09:45:49;27.60;99.90
34766;DHT22;20984;43.508;1.504;2023-08-17T09:48:18;27.70;99.90
34766;DHT22;20984;43.508;1.504;2023-08-17T09:50:47;27.90;99.90
34766;DHT22;20984;43.508;1.504;2023-08-17T09:53:17;27.80;99.90
34766;DHT22;20984;43.508;1.504;2023-08-17T09:55:44;27.80;99.90
34766;DHT22;20984;43.508;1.504;2023-08-17T09:58:11;27.80;99.90
34766;DHT22;20984;43.508;1.504;2023-08-17T10:00:47;27.80;99.90
34766;DHT22;20984;43.508;1.504;2023-08-17T10:03:15;27.90;99.90
34766;DHT22;20984;43.508;1.504;2023-08-17T10:05:43;27.90;99.90
34766;DHT22;20984;43.508;1.504;2023-08-17T10:08:12;28.00;99.90
34766;DHT22;20984;43.508;1.504;2023-08-17T10:10:46;28.10;99.90
34766;DHT22;20984;43.508;1.504;2023-08-17T10:13:22;28.10;99.90
34766;DHT22;20984;43.508;1.504;2023-08-17T10:21:02;28.30;99.90
34766;DHT22;20984;43.508;1.504;2023-08-17T10:23:30;28.30;99.90
34766;DHT22;20984;43.508;1.504;2023-08-17T10:25:57;28.30;99.90
34766;DHT22;20984;43.508;1.504;2023-08-17T10:28:23;28.40;99.90
34766;DHT22;20984;43.508;1.504;2023-08-17T10:30:51;28.50;99.90
34766;DHT22;20984;43.508;1.504;2023-08-17T10:33:16;28.50;99.90
34766;DHT22;20984;43.508;1.504;2023-08-17T10:35:43;28.60;99.90
34766;DHT22;20984;43.508;1.504;2023-08-17T10:38:10;28.80;99.90
34766;DHT22;20984;43.508;1.504;2023-08-17T10:40:41;28.70;99.90
34766;DHT22;20984;43.508;1.504;2023-08-17T10:43:07;28.70;99.90
34766;DHT22;20984;43.508;1.504;2023-08-17T10:45:35;28.80;99.90
34766;DHT22;20984;43.508;1.504;2023-08-17T10:50:31;28.90;99.90
34766;DHT22;20984;43.508;1.504;2023-08-17T10:52:58;28.90;99.90
34766;DHT22;20984;43.508;1.504;2023-08-17T10:55:36;28.90;99.90
34766;DHT22;20984;43.508;1.504;2023-08-17T10:58:02;29.00;99.90
34766;DHT22;20984;43.508;1.504;2023-08-17T11:00:38;29.20;99.90
34766;DHT22;20984;43.508;1.504;2023-08-17T11:03:07;29.30;99.90
34766;DHT22;20984;43.508;1.504;2023-08-17T11:05:46;29.30;99.90
34766;DHT22;20984;43.508;1.504;2023-08-17T11:08:33;29.20;99.90
34766;DHT22;20984;43.508;1.504;2023-08-17T11:11:07;29.50;99.90
34766;DHT22;20984;43.508;1.504;2023-08-17T11:13:36;29.40;99.90
34766;DHT22;20984;43.508;1.504;2023-08-17T11:16:03;29.50;99.90
34766;DHT22;20984;43.508;1.504;2023-08-17T11:18:30;29.50;99.90
34766;DHT22;20984;43.508;1.504;2023-08-17T11:20:56;29.60;99.90
34766;DHT22;20984;43.508;1.504;2023-08-17T11:23:23;29.70;99.90
34766;DHT22;20984;43.508;1.504;2023-08-17T11:25:49;29.80;99.90
34766;DHT22;20984;43.508;1.504;2023-08-17T11:28:16;29.80;99.90
34766;DHT22;20984;43.508;1.504;2023-08-17T11:30:42;30.10;99.90
34766;DHT22;20984;43.508;1.504;2023-08-17T11:33:10;29.80;99.90
34766;DHT22;20984;43.508;1.504;2023-08-17T11:35:37;29.70;99.90
34766;DHT22;20984;43.508;1.504;2023-08-17T11:38:03;29.80;99.90
34766;DHT22;20984;43.508;1.504;2023-08-17T11:40:29;29.90;99.90
34766;DHT22;20984;43.508;1.504;2023-08-17T11:42:55;29.90;99.90
34766;DHT22;20984;43.508;1.504;2023-08-17T11:45:21;29.90;99.90
34766;DHT22;20984;43.508;1.504;2023-08-17T11:47:47;30.20;99.90
34766;DHT22;20984;43.508;1.504;2023-08-17T11:50:13;30.30;99.90
34766;DHT22;20984;43.508;1.504;2023-08-17T11:52:40;30.30;99.90
34766;DHT22;20984;43.508;1.504;2023-08-17T11:55:08;30.30;99.90
34766;DHT22;20984;43.508;1.504;2023-08-17T11:57:35;30.40;99.90
34766;DHT22;20984;43.508;1.504;2023-08-17T12:00:02;30.50;99.90
34766;DHT22;20984;43.508;1.504;2023-08-17T12:02:30;30.60;99.90
34766;DHT22;20984;43.508;1.504;2023-08-17T12:04:56;30.60;99.90
34766;DHT22;20984;43.508;1.504;2023-08-17T12:07:23;30.80;99.90
34766;DHT22;20984;43.508;1.504;2023-08-17T12:09:50;30.90;99.90
34766;DHT22;20984;43.508;1.504;2023-08-17T12:12:21;31.00;99.90
34766;DHT22;20984;43.508;1.504;2023-08-17T12:14:48;31.10;99.90
34766;DHT22;20984;43.508;1.504;2023-08-17T12:17:17;31.00;99.90
34766;DHT22;20984;43.508;1.504;2023-08-17T12:19:44;31.00;99.90
34766;DHT22;20984;43.508;1.504;2023-08-17T12:22:12;31.10;99.90
34766;DHT22;20984;43.508;1.504;2023-08-17T12:24:38;31.10;99.90
34766;DHT22;20984;43.508;1.504;2023-08-17T12:27:05;31.20;99.90
34766;DHT22;20984;43.508;1.504;2023-08-17T12:29:31;31.10;99.90
34766;DHT22;20984;43.508;1.504;2023-08-17T12:31:58;31.20;99.50
34766;DHT22;20984;43.508;1.504;2023-08-17T12:34:24;31.20;99.10
34766;DHT22;20984;43.508;1.504;2023-08-17T12:36:50;31.30;99.90
34766;DHT22;20984;43.508;1.504;2023-08-17T12:39:16;31.40;99.90
34766;DHT22;20984;43.508;1.504;2023-08-17T12:41:42;31.50;99.70
34766;DHT22;20984;43.508;1.504;2023-08-17T12:44:09;31.50;99.90
34766;DHT22;20984;43.508;1.504;2023-08-17T12:46:37;31.50;99.20
34766;DHT22;20984;43.508;1.504;2023-08-17T12:49:03;31.40;98.80
34766;DHT22;20984;43.508;1.504;2023-08-17T12:51:28;31.60;98.70
34766;DHT22;20984;43.508;1.504;2023-08-17T12:53:54;31.60;99.40
34766;DHT22;20984;43.508;1.504;2023-08-17T12:56:20;31.70;99.90
34766;DHT22;20984;43.508;1.504;2023-08-17T12:58:45;31.80;98.70
34766;DHT22;20984;43.508;1.504;2023-08-17T13:01:11;31.80;98.90
34766;DHT22;20984;43.508;1.504;2023-08-17T13:03:37;31.90;99.10
34766;DHT22;20984;43.508;1.504;2023-08-17T13:06:03;32.10;98.70
34766;DHT22;20984;43.508;1.504;2023-08-17T13:08:28;32.00;98.00
34766;DHT22;20984;43.508;1.504;2023-08-17T13:10:54;32.00;97.90
34766;DHT22;20984;43.508;1.504;2023-08-17T13:13:20;32.00;98.40
34766;DHT22;20984;43.508;1.504;2023-08-17T13:15:46;32.00;98.40
34766;DHT22;20984;43.508;1.504;2023-08-17T13:18:11;32.10;98.40
34766;DHT22;20984;43.508;1.504;2023-08-17T13:20:37;32.40;98.00
34766;DHT22;20984;43.508;1.504;2023-08-17T13:23:04;32.50;97.40
34766;DHT22;20984;43.508;1.504;2023-08-17T13:25:30;32.30;98.40
34766;DHT22;20984;43.508;1.504;2023-08-17T13:27:55;32.20;98.80
34766;DHT22;20984;43.508;1.504;2023-08-17T13:30:21;32.10;97.80
34766;DHT22;20984;43.508;1.504;2023-08-17T13:32:47;32.10;98.50
34766;DHT22;20984;43.508;1.504;2023-08-17T13:35:13;32.00;98.80
34766;DHT22;20984;43.508;1.504;2023-08-17T13:37:40;32.10;97.80
34766;DHT22;20984;43.508;1.504;2023-08-17T13:40:07;32.20;98.30
34766;DHT22;20984;43.508;1.504;2023-08-17T13:42:33;32.10;97.70
34766;DHT22;20984;43.508;1.504;2023-08-17T13:44:59;32.20;97.60
34766;DHT22;20984;43.508;1.504;2023-08-17T13:47:25;32.30;97.40
34766;DHT22;20984;43.508;1.504;2023-08-17T13:49:51;32.60;96.90
34766;DHT22;20984;43.508;1.504;2023-08-17T13:52:17;32.90;96.10
34766;DHT22;20984;43.508;1.504;2023-08-17T13:54:43;32.90;96.20
34766;DHT22;20984;43.508;1.504;2023-08-17T13:57:09;33.00;96.20
34766;DHT22;20984;43.508;1.504;2023-08-17T13:59:34;33.20;96.20
34766;DHT22;20984;43.508;1.504;2023-08-17T14:02:00;33.30;95.70
34766;DHT22;20984;43.508;1.504;2023-08-17T14:04:26;33.20;94.40
34766;DHT22;20984;43.508;1.504;2023-08-17T14:06:51;33.30;93.90
34766;DHT22;20984;43.508;1.504;2023-08-17T14:09:17;33.40;94.60
34766;DHT22;20984;43.508;1.504;2023-08-17T14:11:43;33.20;93.50
34766;DHT22;20984;43.508;1.504;2023-08-17T14:14:09;33.10;94.50
34766;DHT22;20984;43.508;1.504;2023-08-17T14:16:36;33.00;95.70
34766;DHT22;20984;43.508;1.504;2023-08-17T14:19:02;33.00;95.60
34766;DHT22;20984;43.508;1.504;2023-08-17T14:21:27;33.00;95.60
34766;DHT22;20984;43.508;1.504;2023-08-17T14:23:53;33.10;95.60
34766;DHT22;20984;43.508;1.504;2023-08-17T14:26:19;33.30;94.80
34766;DHT22;20984;43.508;1.504;2023-08-17T14:28:44;33.20;94.00
34766;DHT22;20984;43.508;1.504;2023-08-17T14:31:10;33.40;95.20
34766;DHT22;20984;43.508;1.504;2023-08-17T14:33:41;33.60;93.80
34766;DHT22;20984;43.508;1.504;2023-08-17T14:36:06;33.90;94.50
34766;DHT22;20984;43.508;1.504;2023-08-17T14:38:32;34.10;92.60
34766;DHT22;20984;43.508;1.504;2023-08-17T14:40:58;34.30;92.00
34766;DHT22;20984;43.508;1.504;2023-08-17T14:43:23;34.30;91.20
34766;DHT22;20984;43.508;1.504;2023-08-17T14:45:49;34.30;91.60
34766;DHT22;20984;43.508;1.504;2023-08-17T14:48:15;33.80;91.80
34766;DHT22;20984;43.508;1.504;2023-08-17T14:50:40;33.50;94.00
34766;DHT22;20984;43.508;1.504;2023-08-17T14:53:06;33.50;94.10
34766;DHT22;20984;43.508;1.504;2023-08-17T14:55:33;33.40;94.30
34766;DHT22;20984;43.508;1.504;2023-08-17T14:57:59;33.60;94.80
34766;DHT22;20984;43.508;1.504;2023-08-17T15:00:25;33.70;95.10
34766;DHT22;20984;43.508;1.504;2023-08-17T15:02:55;33.70;94.30
34766;DHT22;20984;43.508;1.504;2023-08-17T15:05:20;34.00;93.40
34766;DHT22;20984;43.508;1.504;2023-08-17T15:07:47;34.00;92.00
34766;DHT22;20984;43.508;1.504;2023-08-17T15:10:12;34.10;93.70
34766;DHT22;20984;43.508;1.504;2023-08-17T15:12:38;34.10;93.90
34766;DHT22;20984;43.508;1.504;2023-08-17T15:15:04;34.00;94.20
34766;DHT22;20984;43.508;1.504;2023-08-17T15:17:30;34.00;93.20
34766;DHT22;20984;43.508;1.504;2023-08-17T15:19:56;33.60;94.20
34766;DHT22;20984;43.508;1.504;2023-08-17T15:22:21;33.30;95.20
34766;DHT22;20984;43.508;1.504;2023-08-17T15:24:47;33.30;95.20
34766;DHT22;20984;43.508;1.504;2023-08-17T15:27:13;33.50;94.70
34766;DHT22;20984;43.508;1.504;2023-08-17T15:29:39;33.80;94.40
34766;DHT22;20984;43.508;1.504;2023-08-17T15:32:07;34.90;94.40
34766;DHT22;20984;43.508;1.504;2023-08-17T15:34:33;35.60;91.80
34766;DHT22;20984;43.508;1.504;2023-08-17T15:36:59;36.10;90.50